Sea Dolphin C — V7XL9 — position and weather

sailwx.info

Track history (hours):
 
Tides and Currents Weather Stations Pressure Air Temp Water Temp Dewpoint Dewpoint Depression Visibility Wind Speed Wind Dir Waves Ship Positions

Sea Dolphin C

Last reported at 2015-Feb-08 02:19 UTC. Time now 2015-Apr-27 20:43 UTC.
Position N 35°52' E 032°33'.
Warning: this ship's position is months out of date.

Length 181 m; draft 8.5 m.

Type: Cargo ship. MMSI: 538004513.

Date/timePositionNaut miles runAvg speedWind from/ knotsBaromVisibWave heightAir tempDewpointWater temp
2015-Feb-08 02:19N 35°52' E 032°33'  
2015-Feb-05 08:10N 36°07' E 016°03'912.7
2015-Feb-05 07:27N 36°10' E 015°52'1212.8
2015-Feb-05 06:33N 36°12' E 015°38'5212.7
2015-Feb-05 02:26N 36°24' E 014°35'1112.5
2015-Feb-05 01:33N 36°27' E 014°22'1212.3
2015-Feb-05 00:33N 36°31' E 014°08'1212.2
2015-Feb-04 23:33N 36°35' E 013°53'1211.7
2015-Feb-04 22:33N 36°38' E 013°39'1212.1
2015-Feb-04 21:33N 36°42' E 013°25'1212.2
2015-Feb-04 20:33N 36°46' E 013°10'1212.2
2015-Feb-04 19:33N 36°50' E 012°56'1211.9
2015-Feb-04 18:33N 36°54' E 012°42'1211.9
2015-Feb-04 17:33N 36°57' E 012°28'1411.8
2015-Feb-04 16:24N 37°02' E 012°12'  
2015-Feb-02 01:34N 35°60' W 005°14'24211.3
2015-Feb-01 04:04N 37°42' W 009°48'612.4
2015-Feb-01 03:33N 37°48' W 009°50'2512.4
2015-Feb-01 01:32N 38°12' W 009°57'1212.6
2015-Feb-01 00:33N 38°24' W 010°00'1313.0
2015-Jan-31 23:33N 38°37' W 010°05'1312.7
2015-Jan-31 22:32N 38°50' W 010°06'1412.2
2015-Jan-31 21:22N 39°04' W 010°06'1112.2
2015-Jan-31 20:26N 39°16' W 010°06'  
2015-Jan-29 02:24N 50°33' W 005°46'  
Track history (hours):
 
Tides and Currents Weather Stations Pressure Air Temp Water Temp Dewpoint Dewpoint Depression Visibility Wind Speed Wind Dir Waves Ship Positions

Sea Dolphin C

Last reported at 2015-Feb-08 02:19 UTC. Time now 2015-Apr-27 20:43 UTC.
Position N 35°52' E 032°33'.
Warning: this ship's position is months out of date.

Length 181 m; draft 8.5 m.

Type: Cargo ship. MMSI: 538004513.

Date/timePositionNaut miles runAvg speedWind from/ knotsBaromVisibWave heightAir tempDewpointWater temp
2015-Feb-08 02:19N 35°52' E 032°33'  
2015-Feb-05 08:10N 36°07' E 016°03'912.7
2015-Feb-05 07:27N 36°10' E 015°52'1212.8
2015-Feb-05 06:33N 36°12' E 015°38'5212.7
2015-Feb-05 02:26N 36°24' E 014°35'1112.5
2015-Feb-05 01:33N 36°27' E 014°22'1212.3
2015-Feb-05 00:33N 36°31' E 014°08'1212.2
2015-Feb-04 23:33N 36°35' E 013°53'1211.7
2015-Feb-04 22:33N 36°38' E 013°39'1212.1
2015-Feb-04 21:33N 36°42' E 013°25'1212.2
2015-Feb-04 20:33N 36°46' E 013°10'1212.2
2015-Feb-04 19:33N 36°50' E 012°56'1211.9
2015-Feb-04 18:33N 36°54' E 012°42'1211.9
2015-Feb-04 17:33N 36°57' E 012°28'1411.8
2015-Feb-04 16:24N 37°02' E 012°12'  
2015-Feb-02 01:34N 35°60' W 005°14'24211.3
2015-Feb-01 04:04N 37°42' W 009°48'612.4
2015-Feb-01 03:33N 37°48' W 009°50'2512.4
2015-Feb-01 01:32N 38°12' W 009°57'1212.6
2015-Feb-01 00:33N 38°24' W 010°00'1313.0
2015-Jan-31 23:33N 38°37' W 010°05'1312.7
2015-Jan-31 22:32N 38°50' W 010°06'1412.2
2015-Jan-31 21:22N 39°04' W 010°06'1112.2
2015-Jan-31 20:26N 39°16' W 010°06'  
2015-Jan-29 02:24N 50°33' W 005°46'  

Dump ship's entire track history